| Date | Time | Temp. (oF) | Dew Point (oF) | Rel. Hum. (%) | Press. (in.) | Wind Dir. | Wind Speed (mph) | Hourly Rainfall (in.) |
|
|---|---|---|---|---|---|---|---|---|---|
| 1 | 02/28 | 00:00 | 44 | 32 | 63 | 30.36 | NW | 0 | 0.00 |
| 2 | 02/27 | 23:00 | 43 | 30 | 62 | 30.36 | NW | 0 | 0.00 |
| 3 | 02/27 | 22:00 | 44 | 31 | 61 | 30.38 | NW | 0 | 0.00 |
| 4 | 02/27 | 21:00 | 44 | 30 | 59 | 30.38 | NW | 0 | 0.00 |
| 5 | 02/27 | 20:00 | 46 | 29 | 53 | 30.37 | NW | 0 | 0.00 |
| 6 | 02/27 | 19:00 | 46 | 32 | 58 | 30.38 | NW | 0 | 0.00 |
| 7 | 02/27 | 18:00 | 48 | 35 | 61 | 30.37 | NW | 0 | 0.00 |
| 8 | 02/27 | 17:00 | 49 | 33 | 55 | 30.37 | NW | 0 | 0.00 |
| 9 | 02/27 | 16:00 | 50 | 32 | 50 | 30.37 | NW | 0 | 0.00 |
| 10 | 02/27 | 15:00 | 50 | 29 | 45 | 30.37 | NW | 0 | 0.00 |
| 11 | 02/27 | 14:00 | 52 | 26 | 37 | 30.35 | NW | 0 | 0.00 |
| 12 | 02/27 | 13:00 | 53 | 24 | 33 | 30.35 | NW | 0 | 0.00 |
| 13 | 02/27 | 12:00 | 52 | 27 | 38 | 30.38 | NW | 0 | 0.00 |
| 14 | 02/27 | 11:00 | 47 | 33 | 60 | 30.40 | NW | 0 | 0.00 |
| 15 | 02/27 | 10:00 | 42 | 34 | 76 | 30.41 | NW | 0 | 0.00 |
| 16 | 02/27 | 09:00 | 37 | 32 | 82 | 30.41 | NW | 0 | 0.00 |
| 17 | 02/27 | 08:00 | 33 | 28 | 84 | 30.40 | NW | 0 | 0.00 |
| 18 | 02/27 | 07:00 | 28 | 24 | 88 | 30.39 | NW | 0 | 0.00 |
| 19 | 02/27 | 06:00 | 28 | 24 | 85 | 30.36 | NW | 0 | 0.00 |
| 20 | 02/27 | 05:00 | 27 | 22 | 82 | 30.36 | NW | 0 | 0.00 |
| 21 | 02/27 | 04:00 | 28 | 20 | 74 | 30.34 | NW | 0 | 0.00 |
| 22 | 02/27 | 03:00 | 27 | 20 | 77 | 30.33 | NW | 0 | 0.00 |
| 23 | 02/27 | 02:00 | 25 | 22 | 90 | 30.31 | NW | 0 | 0.00 |
| 24 | 02/27 | 01:00 | 25 | 23 | 92 | 30.29 | NW | 0 | 0.00 |